Time;durP1;ratioP1;P1;durP2;ratioP2;P2;SDS_P1;SDS_P2;PMS_P1;PMS_P2;Temp;Humidity;BMP_temperature;BMP_pressure;BME280_temperature;BME280_humidity;BME280_pressure;Samples;Min_cycle;Max_cycle;Signal;HPM_P1;HPM_P2
2023/08/21 00:01:32;;;;;;;5.22;1.98;;;16.30;99.90;;;;;;4994693;28;20070;-75
2023/08/21 00:03:58;;;;;;;5.20;2.50;;;16.20;99.90;;;;;;5004182;28;20085;-76
2023/08/21 00:06:24;;;;;;;5.43;2.50;;;16.20;99.90;;;;;;4993221;28;20484;-76
2023/08/21 00:08:49;;;;;;;4.13;2.10;;;16.20;99.90;;;;;;4955928;28;20042;-76
2023/08/21 00:11:15;;;;;;;7.65;2.75;;;16.20;99.90;;;;;;4988119;28;20038;-76
2023/08/21 00:13:44;;;;;;;4.68;2.45;;;16.20;99.90;;;;;;4991369;28;20061;-75
2023/08/21 00:16:11;;;;;;;5.75;2.10;;;16.10;99.90;;;;;;5027015;28;20491;-76
2023/08/21 00:18:36;;;;;;;5.78;2.63;;;16.10;99.90;;;;;;5010787;28;20096;-76
2023/08/21 00:21:02;;;;;;;6.93;2.67;;;16.00;99.90;;;;;;4982053;28;20034;-75
2023/08/21 00:23:28;;;;;;;7.35;2.30;;;16.00;99.90;;;;;;5023103;28;20046;-77
2023/08/21 00:25:54;;;;;;;10.55;2.53;;;16.00;99.90;;;;;;4989332;28;20101;-76
2023/08/21 00:28:19;;;;;;;6.53;2.10;;;16.00;99.90;;;;;;4992606;28;20074;-76
2023/08/21 00:30:45;;;;;;;4.72;2.20;;;15.90;99.90;;;;;;5032185;28;20122;-76
2023/08/21 00:33:11;;;;;;;5.68;2.80;;;15.90;99.90;;;;;;4994767;28;20049;-76
2023/08/21 00:35:36;;;;;;;5.40;2.60;;;15.90;99.90;;;;;;5012153;28;20113;-76
2023/08/21 00:38:02;;;;;;;8.10;2.65;;;15.90;99.90;;;;;;4990116;28;20487;-76
2023/08/21 00:40:28;;;;;;;6.55;2.75;;;15.80;99.90;;;;;;4957227;28;20069;-77
2023/08/21 00:42:56;;;;;;;4.40;2.15;;;15.80;99.90;;;;;;5002874;28;20046;-77
2023/08/21 00:45:21;;;;;;;5.95;2.88;;;15.80;99.90;;;;;;5027445;28;20044;-76
2023/08/21 00:47:47;;;;;;;7.35;2.80;;;15.80;99.90;;;;;;5012216;28;20407;-76
2023/08/21 00:50:14;;;;;;;8.82;2.92;;;15.70;99.90;;;;;;5004124;28;20049;-76
2023/08/21 00:52:42;;;;;;;8.48;2.90;;;15.70;99.90;;;;;;5003796;28;20097;-76
2023/08/21 00:55:08;;;;;;;7.65;2.53;;;15.70;99.90;;;;;;5025563;28;20041;-76
2023/08/21 00:57:36;;;;;;;4.82;2.72;;;15.70;99.90;;;;;;4994385;28;20089;-76
2023/08/21 01:00:04;;;;;;;5.38;2.60;;;15.70;99.90;;;;;;4991863;28;20042;-76
2023/08/21 01:02:30;;;;;;;3.85;2.60;;;15.60;99.90;;;;;;4979008;28;20038;-77
2023/08/21 01:04:55;;;;;;;9.50;2.78;;;15.60;99.90;;;;;;5012599;28;20096;-76
2023/08/21 01:07:21;;;;;;;7.32;2.85;;;15.60;99.90;;;;;;5031376;28;20476;-77
2023/08/21 01:09:55;;;;;;;7.72;2.97;;;15.60;99.90;;;;;;5021027;28;20052;-76
2023/08/21 01:12:34;;;;;;;7.72;2.90;;;15.60;99.90;;;;;;5028502;28;20045;-76
2023/08/21 01:15:04;;;;;;;5.28;2.60;;;15.60;99.90;;;;;;4987151;28;20035;-76
2023/08/21 01:17:32;;;;;;;4.22;3.10;;;15.60;99.90;;;;;;4996364;28;20088;-76
2023/08/21 01:19:59;;;;;;;6.30;2.55;;;15.60;99.90;;;;;;5021566;28;20125;-76
2023/08/21 01:22:36;;;;;;;7.35;2.80;;;15.70;99.90;;;;;;5013168;28;20153;-75
2023/08/21 01:25:02;;;;;;;7.10;2.58;;;15.70;99.90;;;;;;5009889;28;20034;-76
2023/08/21 01:27:28;;;;;;;7.15;2.97;;;15.60;99.90;;;;;;4987840;28;20043;-76
2023/08/21 01:29:54;;;;;;;7.72;2.70;;;15.70;99.90;;;;;;4955805;28;20754;-76
2023/08/21 01:32:29;;;;;;;5.95;2.67;;;15.70;99.90;;;;;;4991975;28;20034;-76
2023/08/21 01:34:55;;;;;;;5.35;3.10;;;15.60;99.90;;;;;;5022247;28;20112;-76
2023/08/21 01:37:24;;;;;;;6.47;2.70;;;15.60;99.90;;;;;;4987921;28;20499;-76
2023/08/21 01:39:50;;;;;;;4.95;2.72;;;15.60;99.90;;;;;;4969314;28;20133;-76
2023/08/21 01:42:15;;;;;;;5.25;3.45;;;15.60;99.90;;;;;;4986589;28;20117;-77
2023/08/21 01:44:41;;;;;;;8.63;2.58;;;15.50;99.90;;;;;;5024667;28;20260;-77
2023/08/21 01:47:07;;;;;;;6.53;2.90;;;15.50;99.90;;;;;;5002009;28;20034;-77
2023/08/21 01:49:33;;;;;;;8.23;2.80;;;15.50;99.90;;;;;;5012311;28;20129;-77
2023/08/21 01:51:58;;;;;;;9.20;2.90;;;15.50;99.90;;;;;;4974882;28;20046;-76
2023/08/21 01:54:24;;;;;;;6.22;2.88;;;15.50;99.90;;;;;;5026113;28;20056;-76
2023/08/21 01:56:50;;;;;;;5.13;2.63;;;15.50;99.90;;;;;;5023589;28;20416;-77
2023/08/21 01:59:17;;;;;;;7.70;3.22;;;15.50;99.90;;;;;;4989365;28;20038;-76
2023/08/21 02:01:42;;;;;;;6.50;2.60;;;15.40;99.90;;;;;;5023609;28;20037;-76
2023/08/21 02:04:08;;;;;;;7.97;2.80;;;15.40;99.90;;;;;;5032705;28;20052;-76
2023/08/21 02:06:34;;;;;;;4.82;2.70;;;15.30;99.90;;;;;;5026727;28;20156;-76
2023/08/21 02:09:00;;;;;;;5.20;2.50;;;15.30;99.90;;;;;;4959502;28;20411;-76
2023/08/21 02:11:25;;;;;;;8.57;2.70;;;15.20;99.90;;;;;;4999029;28;20041;-76
2023/08/21 02:13:51;;;;;;;7.85;2.78;;;15.20;99.90;;;;;;5006034;28;20046;-76
2023/08/21 02:16:17;;;;;;;4.65;2.50;;;15.10;99.90;;;;;;5025215;28;20053;-75
2023/08/21 02:18:43;;;;;;;4.05;2.65;;;15.10;99.90;;;;;;5001300;28;20069;-76
2023/08/21 02:21:08;;;;;;;7.32;2.50;;;15.10;99.90;;;;;;4993460;28;20050;-76
2023/08/21 02:23:34;;;;;;;5.53;2.45;;;15.10;99.90;;;;;;4992362;28;20044;-76
2023/08/21 02:26:00;;;;;;;6.97;2.50;;;15.10;99.90;;;;;;5029597;28;20069;-76
2023/08/21 02:28:26;;;;;;;8.77;2.38;;;15.10;99.90;;;;;;5007992;28;20129;-77
2023/08/21 02:30:51;;;;;;;7.38;2.92;;;15.10;99.90;;;;;;4975816;28;20052;-77
2023/08/21 02:33:17;;;;;;;7.47;2.47;;;15.10;99.90;;;;;;5005898;28;20062;-77
2023/08/21 02:35:43;;;;;;;7.00;2.95;;;15.10;99.90;;;;;;5002879;28;20605;-77
2023/08/21 02:38:08;;;;;;;8.50;2.60;;;15.10;99.90;;;;;;4974525;28;20038;-76
2023/08/21 02:40:34;;;;;;;4.78;2.50;;;15.10;99.90;;;;;;5028364;28;20531;-76
2023/08/21 02:43:00;;;;;;;6.18;2.53;;;15.00;99.90;;;;;;5013715;28;20050;-76
2023/08/21 02:45:26;;;;;;;3.63;2.30;;;15.00;99.90;;;;;;5014622;28;20042;-77
2023/08/21 02:47:51;;;;;;;7.75;2.40;;;14.90;99.90;;;;;;4988817;28;20481;-76
2023/08/21 02:50:17;;;;;;;5.85;2.40;;;14.90;99.90;;;;;;5036794;28;20039;-77
2023/08/21 02:52:43;;;;;;;7.10;2.60;;;14.90;99.90;;;;;;5019366;28;20038;-76
2023/08/21 02:55:08;;;;;;;6.03;2.70;;;14.80;99.90;;;;;;5016950;28;20049;-76
2023/08/21 02:57:34;;;;;;;7.50;2.72;;;14.90;99.90;;;;;;5011777;28;20045;-76
2023/08/21 03:00:00;;;;;;;6.65;3.00;;;14.90;99.90;;;;;;5028654;28;20042;-76
2023/08/21 03:02:26;;;;;;;7.18;2.83;;;14.90;99.90;;;;;;4995810;28;20038;-76
2023/08/21 03:04:52;;;;;;;5.53;2.72;;;14.90;99.90;;;;;;4989461;28;20049;-76
2023/08/21 03:07:18;;;;;;;5.57;2.63;;;14.80;99.90;;;;;;5007835;28;20096;-76
2023/08/21 03:09:47;;;;;;;9.63;2.92;;;14.80;99.90;;;;;;5044475;28;20116;-76
2023/08/21 03:12:12;;;;;;;5.15;2.80;;;14.80;99.90;;;;;;5027389;28;20058;-76
2023/08/21 03:14:38;;;;;;;6.28;2.92;;;14.80;99.90;;;;;;4991947;28;20034;-76
2023/08/21 03:17:04;;;;;;;4.85;2.60;;;14.80;99.90;;;;;;5013179;28;20034;-76
2023/08/21 03:19:30;;;;;;;7.75;2.60;;;14.80;99.90;;;;;;5011403;28;20042;-76
2023/08/21 03:21:55;;;;;;;5.43;2.70;;;14.70;99.90;;;;;;5001354;28;20081;-76
2023/08/21 03:24:21;;;;;;;5.07;2.40;;;14.70;99.90;;;;;;5031361;28;20030;-76
2023/08/21 03:26:47;;;;;;;3.60;2.53;;;14.70;99.90;;;;;;5013321;28;20089;-76
2023/08/21 03:29:13;;;;;;;4.85;2.53;;;14.70;99.90;;;;;;4993067;28;20538;-76
2023/08/21 03:31:39;;;;;;;6.40;2.67;;;14.70;99.90;;;;;;4993777;28;20393;-75
2023/08/21 03:34:05;;;;;;;7.00;2.80;;;14.60;99.90;;;;;;4979318;28;20038;-75
2023/08/21 03:36:31;;;;;;;4.10;2.25;;;14.60;99.90;;;;;;4965975;28;20030;-76
2023/08/21 03:39:06;;;;;;;5.53;2.47;;;14.60;99.90;;;;;;4991374;28;20062;-76
2023/08/21 03:41:32;;;;;;;5.25;2.30;;;14.50;99.90;;;;;;5011689;28;20043;-76
2023/08/21 03:43:58;;;;;;;5.45;2.50;;;14.50;99.90;;;;;;4988351;28;20573;-76
2023/08/21 03:46:23;;;;;;;6.68;2.85;;;14.40;99.90;;;;;;4974519;28;20046;-76
2023/08/21 03:48:50;;;;;;;6.68;2.65;;;14.40;99.90;;;;;;5011489;28;20038;-76
2023/08/21 03:51:16;;;;;;;4.95;1.90;;;14.30;99.90;;;;;;5015755;28;20050;-76
2023/08/21 03:53:42;;;;;;;5.75;2.28;;;14.30;99.90;;;;;;5022812;28;20034;-77
2023/08/21 03:56:07;;;;;;;6.05;2.33;;;14.30;99.90;;;;;;5027322;28;20517;-76
2023/08/21 03:58:33;;;;;;;3.22;2.25;;;14.20;99.90;;;;;;5026318;28;20044;-76
2023/08/21 04:00:59;;;;;;;5.50;2.47;;;14.20;99.90;;;;;;4987726;28;20562;-76
2023/08/21 04:03:25;;;;;;;5.18;2.20;;;14.20;99.90;;;;;;5028258;28;20074;-76
2023/08/21 04:05:54;;;;;;;6.60;2.80;;;14.10;99.90;;;;;;5009207;28;20380;-76
2023/08/21 04:08:20;;;;;;;4.63;2.35;;;14.20;99.90;;;;;;5006726;28;20046;-76
2023/08/21 04:10:46;;;;;;;3.38;2.45;;;14.10;99.90;;;;;;4993779;28;20026;-76
2023/08/21 04:13:11;;;;;;;3.63;2.05;;;14.10;99.90;;;;;;4987147;28;20042;-76
2023/08/21 04:15:37;;;;;;;5.47;2.53;;;14.10;99.90;;;;;;4979058;28;20034;-76
2023/08/21 04:18:03;;;;;;;4.68;2.28;;;14.10;99.90;;;;;;4984836;28;21525;-76
2023/08/21 04:20:29;;;;;;;4.35;2.20;;;14.10;99.90;;;;;;4967012;28;20118;-76
2023/08/21 04:22:55;;;;;;;5.45;2.40;;;14.00;99.90;;;;;;5024650;28;20128;-76
2023/08/21 04:25:20;;;;;;;6.38;2.45;;;14.10;99.90;;;;;;5007165;28;20053;-76
2023/08/21 04:27:46;;;;;;;5.90;2.70;;;14.10;99.90;;;;;;4995128;28;20395;-76
2023/08/21 04:30:12;;;;;;;3.88;2.42;;;14.10;99.90;;;;;;4997484;28;20033;-76
2023/08/21 04:32:38;;;;;;;4.65;2.50;;;14.00;99.90;;;;;;4993166;28;20567;-76
2023/08/21 04:35:05;;;;;;;6.93;3.05;;;14.00;99.90;;;;;;4993209;28;20043;-75
2023/08/21 04:37:31;;;;;;;6.22;3.03;;;14.00;99.90;;;;;;4998371;28;20492;-76
2023/08/21 04:39:57;;;;;;;6.07;2.30;;;14.00;99.90;;;;;;4990996;28;20046;-76
2023/08/21 04:42:22;;;;;;;2.45;1.88;;;14.00;99.90;;;;;;4992775;28;20514;-75
2023/08/21 04:44:48;;;;;;;5.90;2.05;;;14.00;99.90;;;;;;5019172;28;20046;-75
2023/08/21 04:47:22;;;;;;;7.45;2.35;;;14.00;99.90;;;;;;5026588;28;20507;-75
2023/08/21 04:49:49;;;;;;;3.42;1.90;;;14.00;99.90;;;;;;5003235;28;20038;-76
2023/08/21 04:52:15;;;;;;;5.30;2.60;;;14.00;99.90;;;;;;4994099;28;20042;-76
2023/08/21 04:54:41;;;;;;;4.00;2.10;;;14.00;99.90;;;;;;5042030;28;20041;-73
2023/08/21 04:57:09;;;;;;;5.72;2.13;;;14.00;99.90;;;;;;4993470;28;20037;-73
2023/08/21 04:59:36;;;;;;;3.75;2.10;;;14.00;99.90;;;;;;4993175;28;20049;-73
2023/08/21 05:02:02;;;;;;;4.47;2.20;;;14.00;99.90;;;;;;4985783;28;20500;-73
2023/08/21 05:04:28;;;;;;;5.80;2.60;;;14.00;99.90;;;;;;5009901;28;20086;-73
2023/08/21 05:06:54;;;;;;;5.07;2.25;;;14.00;99.90;;;;;;5011796;28;20403;-73
2023/08/21 05:09:19;;;;;;;5.00;1.98;;;14.00;99.90;;;;;;5021181;28;20499;-73
2023/08/21 05:11:45;;;;;;;7.32;2.40;;;14.00;99.90;;;;;;4996807;28;20046;-73
2023/08/21 05:14:11;;;;;;;8.32;2.60;;;14.00;99.90;;;;;;4973162;28;20489;-73
2023/08/21 05:16:36;;;;;;;5.57;2.40;;;14.00;99.90;;;;;;4986460;28;20168;-73
2023/08/21 05:19:02;;;;;;;5.35;2.60;;;14.10;99.90;;;;;;4994077;28;20096;-73
2023/08/21 05:21:28;;;;;;;5.05;2.42;;;14.20;99.90;;;;;;4990851;28;20042;-73
2023/08/21 05:23:54;;;;;;;4.88;2.42;;;14.10;99.90;;;;;;4973294;28;20045;-73
2023/08/21 05:26:20;;;;;;;3.63;2.63;;;14.20;99.90;;;;;;5025336;28;20045;-72
2023/08/21 05:28:46;;;;;;;6.43;2.50;;;14.20;99.90;;;;;;5027594;28;20038;-72
2023/08/21 05:31:12;;;;;;;5.35;2.47;;;14.30;99.90;;;;;;5005256;28;20049;-72
2023/08/21 05:33:37;;;;;;;5.82;2.40;;;14.30;99.90;;;;;;4973876;28;20457;-72
2023/08/21 05:36:03;;;;;;;6.57;2.80;;;14.30;99.90;;;;;;5022633;28;20048;-72
2023/08/21 05:38:29;;;;;;;5.55;3.10;;;14.30;99.90;;;;;;5014342;28;20043;-72
2023/08/21 05:40:55;;;;;;;8.10;3.88;;;14.40;99.90;;;;;;4992790;28;20046;-72
2023/08/21 05:43:21;;;;;;;4.82;3.25;;;14.40;99.90;;;;;;4996710;28;20045;-72
2023/08/21 05:45:47;;;;;;;8.80;3.60;;;14.40;99.90;;;;;;4983493;28;20127;-72
2023/08/21 05:48:13;;;;;;;5.20;2.80;;;14.50;99.90;;;;;;5029471;28;20056;-72
2023/08/21 05:50:39;;;;;;;8.95;3.72;;;14.50;99.90;;;;;;4994603;28;20121;-72
2023/08/21 05:53:05;;;;;;;5.18;2.95;;;14.60;99.90;;;;;;5042473;28;20037;-72
2023/08/21 05:55:31;;;;;;;6.97;3.78;;;14.60;99.90;;;;;;4987039;28;20061;-72
2023/08/21 05:57:57;;;;;;;4.63;3.00;;;14.70;99.90;;;;;;5006112;28;20080;-72
2023/08/21 06:00:26;;;;;;;7.82;4.00;;;14.80;99.90;;;;;;4996773;28;20384;-72
2023/08/21 06:02:54;;;;;;;12.70;4.03;;;14.90;99.90;;;;;;5010841;28;20042;-72
2023/08/21 06:05:20;;;;;;;6.50;3.20;;;15.00;99.90;;;;;;4995862;28;20535;-72
2023/08/21 06:07:46;;;;;;;15.43;3.15;;;15.00;99.90;;;;;;5005961;28;20124;-72
2023/08/21 06:10:12;;;;;;;11.10;3.15;;;15.10;99.90;;;;;;4994793;28;20546;-72
2023/08/21 06:12:42;;;;;;;7.82;2.88;;;15.20;99.90;;;;;;5002919;28;20065;-72
2023/08/21 06:15:17;;;;;;;6.95;3.15;;;15.30;99.90;;;;;;5043408;28;20042;-72
2023/08/21 06:17:43;;;;;;;9.15;3.15;;;15.30;99.90;;;;;;5029311;28;20044;-72
2023/08/21 06:20:09;;;;;;;7.03;3.28;;;15.50;99.90;;;;;;5004584;28;20046;-72
2023/08/21 06:22:35;;;;;;;7.40;3.35;;;15.50;99.90;;;;;;5010913;28;20042;-72
2023/08/21 06:25:01;;;;;;;9.02;3.50;;;15.60;99.90;;;;;;5028587;28;20125;-72
2023/08/21 06:27:27;;;;;;;7.60;3.60;;;15.70;99.90;;;;;;5020231;28;20173;-72
2023/08/21 06:29:52;;;;;;;7.68;2.95;;;15.80;99.90;;;;;;5013232;28;20049;-72
2023/08/21 06:32:18;;;;;;;7.38;3.60;;;15.90;99.90;;;;;;5014032;28;20138;-72
2023/08/21 06:34:44;;;;;;;6.00;3.55;;;15.90;99.90;;;;;;4999162;28;20539;-72
2023/08/21 06:37:09;;;;;;;7.68;3.10;;;16.10;99.90;;;;;;5027809;28;20037;-71
2023/08/21 06:39:35;;;;;;;7.22;2.65;;;16.10;99.90;;;;;;5036929;28;20495;-72
2023/08/21 06:42:01;;;;;;;6.45;2.97;;;16.20;99.90;;;;;;5023248;28;20100;-71
2023/08/21 06:44:27;;;;;;;7.65;3.30;;;16.30;99.90;;;;;;4998780;28;20048;-71
2023/08/21 06:46:53;;;;;;;6.80;3.42;;;16.40;99.90;;;;;;4983959;28;20042;-72
2023/08/21 06:49:22;;;;;;;7.22;3.30;;;16.50;99.90;;;;;;5042463;28;20093;-72
2023/08/21 06:51:47;;;;;;;9.15;3.45;;;16.50;99.90;;;;;;4993463;28;20030;-72
2023/08/21 06:54:13;;;;;;;10.27;3.28;;;16.60;99.90;;;;;;5024772;28;20046;-72
2023/08/21 06:56:39;;;;;;;8.63;3.67;;;16.70;99.90;;;;;;5005270;28;20126;-72
2023/08/21 06:59:05;;;;;;;7.78;4.25;;;16.80;99.90;;;;;;5021431;28;20041;-72
2023/08/21 07:01:31;;;;;;;8.68;3.47;;;17.00;99.90;;;;;;4993256;28;20103;-72
2023/08/21 07:03:56;;;;;;;6.63;3.17;;;17.10;99.90;;;;;;4996024;28;20121;-72
2023/08/21 07:06:22;;;;;;;8.95;3.70;;;17.20;99.90;;;;;;5002470;28;20045;-72
2023/08/21 07:08:48;;;;;;;5.57;3.65;;;17.40;99.90;;;;;;4980367;28;20492;-72
2023/08/21 07:11:14;;;;;;;4.90;2.92;;;17.50;99.90;;;;;;5034333;28;20041;-72
2023/08/21 07:13:39;;;;;;;9.63;3.45;;;17.70;99.90;;;;;;5016493;28;20415;-72
2023/08/21 07:16:06;;;;;;;8.43;3.40;;;17.80;99.90;;;;;;5011337;28;20034;-72
2023/08/21 07:18:33;;;;;;;9.70;2.60;;;18.00;99.90;;;;;;5014252;28;21076;-72
2023/08/21 07:20:59;;;;;;;5.28;2.30;;;18.10;99.90;;;;;;4984762;28;20129;-72
2023/08/21 07:23:25;;;;;;;4.72;2.33;;;18.30;99.90;;;;;;5005218;28;20042;-72
2023/08/21 07:25:51;;;;;;;7.03;2.20;;;18.40;99.90;;;;;;4971946;28;20041;-72
2023/08/21 07:28:17;;;;;;;4.78;2.03;;;18.60;99.90;;;;;;5023015;28;20041;-71
2023/08/21 07:30:43;;;;;;;7.18;2.22;;;18.70;99.90;;;;;;4989853;28;20042;-72
2023/08/21 07:33:09;;;;;;;5.22;2.20;;;18.80;99.90;;;;;;5007169;28;20091;-72
2023/08/21 07:35:35;;;;;;;5.85;2.13;;;19.00;99.90;;;;;;5005810;28;20513;-72
2023/08/21 07:38:01;;;;;;;7.22;2.10;;;19.20;99.90;;;;;;5006825;28;20053;-72
2023/08/21 07:40:27;;;;;;;3.33;1.55;;;19.30;99.90;;;;;;4982757;28;1123993;-72
2023/08/21 07:42:53;;;;;;;2.92;1.55;;;19.50;99.90;;;;;;5008448;28;20071;-72
2023/08/21 07:45:19;;;;;;;5.55;1.70;;;19.60;99.90;;;;;;5010784;28;20044;-72
2023/08/21 07:47:44;;;;;;;4.45;1.48;;;19.80;99.90;;;;;;5009182;28;20159;-72
2023/08/21 07:50:10;;;;;;;6.80;2.50;;;19.90;99.90;;;;;;5011572;28;20044;-72
2023/08/21 07:52:36;;;;;;;3.72;1.45;;;20.00;99.90;;;;;;4998472;28;20600;-71
2023/08/21 07:55:03;;;;;;;2.40;1.30;;;20.10;99.90;;;;;;5008526;28;20064;-71
2023/08/21 07:57:29;;;;;;;3.25;1.80;;;20.20;99.90;;;;;;5008997;28;20080;-71
2023/08/21 07:59:55;;;;;;;7.95;1.90;;;20.30;99.90;;;;;;5026081;28;20032;-72
2023/08/21 08:02:21;;;;;;;2.95;1.80;;;20.40;99.90;;;;;;5008400;28;21487;-71
2023/08/21 08:04:47;;;;;;;4.68;1.70;;;20.50;99.90;;;;;;5009818;28;20078;-71
2023/08/21 08:07:13;;;;;;;4.07;1.80;;;20.60;99.90;;;;;;4993484;28;20037;-71
2023/08/21 08:09:39;;;;;;;4.18;1.50;;;20.80;99.90;;;;;;4990088;28;20162;-71
2023/08/21 08:12:05;;;;;;;7.40;1.90;;;20.90;99.90;;;;;;5021267;28;20037;-71
2023/08/21 08:14:31;;;;;;;2.45;1.45;;;21.00;99.90;;;;;;4989136;28;20037;-71
2023/08/21 08:16:57;;;;;;;5.85;1.90;;;21.10;99.90;;;;;;4990468;28;20053;-71
2023/08/21 08:19:23;;;;;;;5.35;1.52;;;21.20;99.90;;;;;;5006908;28;20041;-71
2023/08/21 08:21:48;;;;;;;5.85;1.63;;;21.20;99.90;;;;;;5005779;28;20108;-71
2023/08/21 08:24:14;;;;;;;5.82;1.70;;;21.40;99.90;;;;;;4988882;28;20092;-71
2023/08/21 08:26:42;;;;;;;3.65;1.70;;;21.50;99.90;;;;;;5037600;28;20048;-74
2023/08/21 08:29:08;;;;;;;5.45;1.77;;;21.50;99.90;;;;;;5012824;28;20050;-74
2023/08/21 08:31:34;;;;;;;6.00;1.88;;;21.50;99.90;;;;;;5024407;28;20067;-74
2023/08/21 08:33:59;;;;;;;3.42;1.65;;;21.60;99.90;;;;;;4994748;28;20037;-74
2023/08/21 08:36:25;;;;;;;4.10;1.40;;;21.80;99.90;;;;;;4994219;28;20062;-74
2023/08/21 08:38:51;;;;;;;4.07;1.40;;;21.90;99.90;;;;;;4993636;28;20041;-75
2023/08/21 08:41:30;;;;;;;4.70;1.42;;;22.10;99.90;;;;;;4988619;28;20857;-75
2023/08/21 08:44:01;;;;;;;5.32;1.38;;;22.20;99.90;;;;;;5005672;28;20053;-76
2023/08/21 08:46:29;;;;;;;3.95;1.77;;;22.30;99.90;;;;;;5034461;28;20076;-76
2023/08/21 08:48:56;;;;;;;5.22;1.30;;;22.40;99.90;;;;;;4997999;28;20056;-76
2023/08/21 08:51:24;;;;;;;3.63;1.80;;;22.50;99.90;;;;;;4998505;28;20042;-75
2023/08/21 08:53:50;;;;;;;7.35;1.67;;;22.60;99.90;;;;;;4994076;28;20053;-77
2023/08/21 08:56:16;;;;;;;3.75;1.13;;;22.80;99.90;;;;;;5007100;28;20030;-76
2023/08/21 08:58:42;;;;;;;3.75;1.40;;;22.80;99.90;;;;;;5008125;28;20041;-75
2023/08/21 09:01:12;;;;;;;5.70;1.35;;;23.00;99.90;;;;;;5020786;28;20072;-75
2023/08/21 09:03:38;;;;;;;6.55;1.40;;;23.00;99.90;;;;;;4998214;28;20048;-74
2023/08/21 09:06:04;;;;;;;1.77;1.40;;;23.10;99.90;;;;;;5006478;28;20049;-75
2023/08/21 09:08:30;;;;;;;2.70;1.30;;;23.20;99.90;;;;;;5006343;28;20396;-75
2023/08/21 09:11:00;;;;;;;3.15;1.42;;;23.30;99.90;;;;;;4989205;28;20111;-75
2023/08/21 09:13:26;;;;;;;4.32;1.17;;;23.40;99.90;;;;;;4988466;28;20033;-75
2023/08/21 09:15:55;;;;;;;2.85;0.85;;;23.60;99.90;;;;;;4977759;28;20103;-75
2023/08/21 09:18:21;;;;;;;1.55;0.73;;;23.70;99.90;;;;;;4975357;28;20046;-75
2023/08/21 09:20:48;;;;;;;5.32;1.63;;;23.60;99.90;;;;;;5009950;28;20053;-75
2023/08/21 09:23:15;;;;;;;5.47;1.92;;;23.50;99.90;;;;;;5020661;28;20576;-76
2023/08/21 09:25:41;;;;;;;1.95;1.20;;;23.60;99.90;;;;;;4999025;28;20045;-75
2023/08/21 09:28:08;;;;;;;1.35;1.02;;;23.70;99.90;;;;;;4996048;28;20164;-72
2023/08/21 09:30:51;;;;;;;3.25;1.27;;;23.70;99.90;;;;;;5012844;28;20041;-73
2023/08/21 09:33:19;;;;;;;2.03;1.45;;;23.90;99.90;;;;;;4996678;28;20038;-73
2023/08/21 09:35:45;;;;;;;3.90;1.50;;;24.00;99.90;;;;;;5012753;28;20057;-72
2023/08/21 09:38:11;;;;;;;3.00;1.33;;;24.10;99.90;;;;;;5012697;28;20058;-73
2023/08/21 09:40:51;;;;;;;5.78;1.40;;;24.10;99.90;;;;;;4995355;28;20517;-73
2023/08/21 09:43:16;;;;;;;4.20;1.35;;;24.20;99.90;;;;;;5043376;28;20115;-72
2023/08/21 09:45:46;;;;;;;2.50;1.25;;;24.30;99.90;;;;;;5012146;28;20438;-73
2023/08/21 09:48:13;;;;;;;3.97;1.55;;;24.40;99.90;;;;;;5013445;28;20041;-73
2023/08/21 09:50:40;;;;;;;4.38;1.85;;;24.50;99.90;;;;;;4997605;28;20037;-73
2023/08/21 09:53:09;;;;;;;4.28;1.50;;;24.60;99.90;;;;;;5012708;28;20040;-73
2023/08/21 09:55:35;;;;;;;5.95;1.67;;;24.70;99.90;;;;;;4999913;28;20044;-71
2023/08/21 09:58:02;;;;;;;4.28;1.45;;;24.80;99.90;;;;;;4999148;28;20124;-71
2023/08/21 10:00:37;;;;;;;4.30;1.30;;;24.90;99.90;;;;;;5044790;28;20077;-71
2023/08/21 10:03:07;;;;;;;5.57;1.42;;;25.00;99.90;;;;;;5029457;28;20045;-71
2023/08/21 10:05:34;;;;;;;4.90;1.23;;;25.00;99.90;;;;;;5013564;28;20049;-71
2023/08/21 10:08:05;;;;;;;1.63;1.10;;;25.10;99.90;;;;;;5013187;28;20132;-71
2023/08/21 10:10:32;;;;;;;5.55;1.30;;;25.20;99.90;;;;;;5013600;28;20030;-71
2023/08/21 10:12:59;;;;;;;1.52;1.00;;;25.20;98.50;;;;;;5029114;28;20037;-71
2023/08/21 10:15:29;;;;;;;3.00;1.23;;;25.20;99.40;;;;;;5017463;28;20049;-71
2023/08/21 10:17:55;;;;;;;4.63;1.35;;;25.30;97.60;;;;;;5030867;28;20041;-71
2023/08/21 10:20:23;;;;;;;2.05;1.10;;;25.40;98.80;;;;;;5033981;28;20490;-71
2023/08/21 10:22:53;;;;;;;8.88;1.48;;;25.40;98.20;;;;;;5017016;28;20391;-72
2023/08/21 10:25:22;;;;;;;6.00;1.50;;;25.50;98.50;;;;;;5002889;28;20487;-73
2023/08/21 10:27:53;;;;;;;3.60;1.17;;;25.60;98.70;;;;;;5022461;28;20069;-73
2023/08/21 10:30:22;;;;;;;4.18;1.10;;;25.80;98.80;;;;;;5009273;28;20212;-73
2023/08/21 10:32:49;;;;;;;4.82;1.17;;;25.90;98.00;;;;;;4999527;28;20759;-74
2023/08/21 10:35:18;;;;;;;5.15;1.42;;;25.90;97.30;;;;;;4970842;28;20066;-73
2023/08/21 10:38:18;;;;;;;3.72;1.10;;;25.90;97.60;;;;;;5005995;28;20093;-73
2023/08/21 10:41:25;;;;;;;3.00;1.30;;;25.90;95.00;;;;;;4984771;28;20057;-71
2023/08/21 10:43:51;;;;;;;2.47;1.30;;;26.00;95.90;;;;;;4980824;28;20046;-74
2023/08/21 10:46:17;;;;;;;2.67;1.33;;;26.00;95.90;;;;;;4976995;28;20437;-74
2023/08/21 10:48:42;;;;;;;10.70;2.03;;;26.00;95.80;;;;;;5025311;28;20411;-75
2023/08/21 10:51:12;;;;;;;2.63;1.13;;;26.00;95.50;;;;;;5039172;28;20464;-74
2023/08/21 10:53:39;;;;;;;2.60;1.20;;;26.10;95.90;;;;;;5002611;28;20049;-73
2023/08/21 10:56:06;;;;;;;2.70;1.00;;;26.10;96.00;;;;;;4976761;28;20030;-75
2023/08/21 10:58:51;;;;;;;2.28;1.05;;;26.20;96.00;;;;;;4998030;28;20073;-74
2023/08/21 11:01:16;;;;;;;2.05;1.02;;;26.20;95.30;;;;;;5025129;28;20038;-74
2023/08/21 11:03:46;;;;;;;4.03;1.20;;;26.30;95.90;;;;;;5012302;28;20089;-75
2023/08/21 11:06:12;;;;;;;3.38;1.33;;;26.30;95.10;;;;;;5004471;28;20145;-74
2023/08/21 11:08:38;;;;;;;3.90;1.80;;;26.30;94.90;;;;;;5004360;28;20121;-77
2023/08/21 11:11:05;;;;;;;3.15;1.00;;;26.30;95.00;;;;;;5017301;28;20038;-77
2023/08/21 11:13:31;;;;;;;3.22;1.23;;;26.20;94.50;;;;;;4988468;28;20050;-77
2023/08/21 11:16:02;;;;;;;1.80;0.93;;;26.20;94.80;;;;;;5005111;28;20125;-76
2023/08/21 11:18:36;;;;;;;4.00;1.60;;;26.20;94.60;;;;;;5021847;28;20042;-75
2023/08/21 11:21:12;;;;;;;4.10;1.13;;;26.20;94.10;;;;;;5000119;28;20051;-74
2023/08/21 11:23:42;;;;;;;3.72;1.52;;;26.30;94.80;;;;;;4998879;28;20038;-75
2023/08/21 11:26:11;;;;;;;2.85;1.20;;;26.40;95.10;;;;;;5019081;28;20049;-75
2023/08/21 11:28:39;;;;;;;4.30;0.95;;;26.60;93.70;;;;;;4989022;28;20056;-75
2023/08/21 11:31:06;;;;;;;3.80;1.20;;;26.60;93.90;;;;;;5001443;28;20037;-73
2023/08/21 11:33:32;;;;;;;2.30;0.93;;;26.70;94.80;;;;;;4988067;28;20038;-75
2023/08/21 11:36:00;;;;;;;6.90;1.60;;;26.80;94.70;;;;;;4978739;28;20046;-75
2023/08/21 11:38:27;;;;;;;1.55;1.00;;;26.90;94.90;;;;;;5009733;28;20093;-73
2023/08/21 11:41:00;;;;;;;3.30;1.35;;;26.90;93.60;;;;;;5010780;28;20061;-74
2023/08/21 11:43:40;;;;;;;3.47;1.00;;;26.90;92.60;;;;;;5018153;28;20058;-74
2023/08/21 11:46:07;;;;;;;3.10;1.30;;;26.80;91.60;;;;;;5017663;28;20056;-74
2023/08/21 11:48:33;;;;;;;3.58;1.30;;;26.90;92.10;;;;;;5005135;28;20092;-73
2023/08/21 11:51:00;;;;;;;3.03;1.20;;;26.80;92.20;;;;;;4957523;28;20117;-72
2023/08/21 11:53:37;;;;;;;1.88;1.30;;;26.90;92.40;;;;;;5007282;28;20399;-73
2023/08/21 11:56:10;;;;;;;5.30;1.70;;;26.80;92.20;;;;;;5033626;28;20491;-75
2023/08/21 11:58:45;;;;;;;2.80;1.05;;;26.90;92.20;;;;;;5032361;28;20045;-76
2023/08/21 12:01:15;;;;;;;2.42;1.20;;;27.10;93.10;;;;;;5004511;28;20045;-76
2023/08/21 12:03:41;;;;;;;2.83;1.42;;;27.30;93.10;;;;;;5036921;28;20052;-75
2023/08/21 12:06:12;;;;;;;4.03;1.25;;;27.40;92.80;;;;;;4996130;28;20035;-75
2023/08/21 12:08:40;;;;;;;2.97;1.27;;;27.30;92.60;;;;;;4974821;28;20501;-75
2023/08/21 12:11:07;;;;;;;3.80;1.30;;;27.40;92.20;;;;;;4974874;28;20034;-75
2023/08/21 12:13:34;;;;;;;4.45;1.50;;;27.50;91.80;;;;;;5035352;28;20033;-76
2023/08/21 12:16:00;;;;;;;3.08;1.55;;;27.20;91.30;;;;;;4988030;28;20051;-76
2023/08/21 12:18:25;;;;;;;6.30;1.55;;;27.20;91.20;;;;;;4991229;28;20049;-76
2023/08/21 12:20:51;;;;;;;2.60;1.15;;;27.10;91.70;;;;;;5039892;28;20483;-75
2023/08/21 12:23:17;;;;;;;4.80;1.55;;;27.20;91.80;;;;;;5006854;28;20081;-76
2023/08/21 12:25:42;;;;;;;3.88;1.70;;;27.20;92.00;;;;;;4956064;28;20450;-77
2023/08/21 12:28:08;;;;;;;3.30;1.35;;;27.20;91.80;;;;;;4968334;28;20046;-77
2023/08/21 12:30:34;;;;;;;7.43;2.38;;;27.10;92.20;;;;;;4987146;28;20636;-78
2023/08/21 12:33:00;;;;;;;6.32;1.75;;;27.20;92.60;;;;;;4992703;28;20117;-78
2023/08/21 12:35:26;;;;;;;4.43;1.42;;;27.30;92.60;;;;;;4992122;28;20414;-77
2023/08/21 12:37:57;;;;;;;2.38;1.02;;;27.40;92.90;;;;;;5008530;28;20041;-77
2023/08/21 12:40:23;;;;;;;2.15;1.00;;;27.50;92.10;;;;;;4988352;28;20344;-77
2023/08/21 12:42:50;;;;;;;3.47;1.20;;;27.60;91.70;;;;;;5005954;28;20696;-75
2023/08/21 12:45:16;;;;;;;3.55;1.40;;;27.50;91.30;;;;;;5015775;28;20045;-75